createdAt,value
2023-03-06T00:02:27.095Z,-6.47
2023-03-06T00:07:32.712Z,-6.43
2023-03-06T00:12:39.847Z,-6.47
2023-03-06T00:17:46.902Z,-6.53
2023-03-06T00:22:54.398Z,-6.61
2023-03-06T00:28:01.469Z,-6.75
2023-03-06T00:33:08.736Z,-6.91
2023-03-06T00:38:15.924Z,-7.07
2023-03-06T00:43:23.009Z,-7.22
2023-03-06T00:48:30.208Z,-7.35
2023-03-06T00:53:37.439Z,-7.39
2023-03-06T00:58:44.500Z,-7.36
2023-03-06T01:03:51.663Z,-7.24
2023-03-06T01:09:01.754Z,-7.08
2023-03-06T01:14:08.875Z,-6.94
2023-03-06T01:19:17.328Z,-6.82
2023-03-06T01:24:26.039Z,-6.78
2023-03-06T01:29:36.859Z,-6.81
2023-03-06T01:34:44.108Z,-6.89
2023-03-06T01:39:51.430Z,-7.01
2023-03-06T01:45:10.640Z,-7.17
2023-03-06T01:50:18.249Z,-7.33
2023-03-06T01:55:30.331Z,-7.48
2023-03-06T02:00:37.570Z,-7.63
2023-03-06T02:05:45.694Z,-7.71
2023-03-06T02:11:03.772Z,-7.70
2023-03-06T02:16:12.634Z,-7.64
2023-03-06T02:21:26.883Z,-7.63
2023-03-06T02:26:35.978Z,-7.58
2023-03-06T02:31:43.104Z,-7.47
2023-03-06T02:36:53.831Z,-7.39
2023-03-06T02:42:01.127Z,-7.38
2023-03-06T02:47:10.278Z,-7.47
2023-03-06T02:52:17.508Z,-7.63
2023-03-06T02:57:24.634Z,-7.84
2023-03-06T03:02:33.070Z,-8.04
2023-03-06T03:07:40.285Z,-8.23
2023-03-06T03:12:48.817Z,-8.34
2023-03-06T03:17:56.442Z,-8.33
2023-03-06T03:23:03.937Z,-8.28
2023-03-06T03:28:11.052Z,-8.24
2023-03-06T03:33:18.294Z,-8.12
2023-03-06T03:38:26.071Z,-8.02
2023-03-06T03:43:34.824Z,-7.93
2023-03-06T03:48:41.940Z,-7.81
2023-03-06T03:53:50.764Z,-7.73
2023-03-06T03:59:00.160Z,-7.75
2023-03-06T04:04:10.174Z,-7.87
2023-03-06T04:09:19.231Z,-8.09
2023-03-06T04:14:26.513Z,-8.36
2023-03-06T04:19:32.389Z,-8.59
2023-03-06T04:24:40.846Z,-8.80
2023-03-06T04:29:49.270Z,-8.94
2023-03-06T04:34:57.004Z,-9.01
2023-03-06T04:40:05.458Z,-8.96
2023-03-06T04:45:14.090Z,-8.82
2023-03-06T04:50:22.496Z,-8.69
2023-03-06T04:55:29.833Z,-8.60
2023-03-06T05:00:37.109Z,-8.51
2023-03-06T05:05:44.328Z,-8.45
2023-03-06T05:10:57.388Z,-8.42
2023-03-06T05:16:09.512Z,-8.36
2023-03-06T05:21:16.616Z,-8.24
2023-03-06T05:26:23.826Z,-8.18
2023-03-06T05:31:30.966Z,-8.12
2023-03-06T05:36:38.109Z,-8.10
2023-03-06T05:41:45.508Z,-8.10
2023-03-06T05:46:53.257Z,-8.21
2023-03-06T05:52:00.429Z,-8.27
2023-03-06T05:57:08.077Z,-8.27
2023-03-06T06:02:15.383Z,-8.24
2023-03-06T06:07:22.570Z,-8.16
2023-03-06T06:12:30.295Z,-8.02
2023-03-06T06:17:37.510Z,-7.78
2023-03-06T06:22:44.769Z,-7.45
2023-03-06T06:27:51.906Z,-7.07
2023-03-06T06:32:59.347Z,-6.68
2023-03-06T06:38:06.900Z,-6.37
2023-03-06T06:43:14.042Z,-6.19
2023-03-06T06:48:21.191Z,-5.95
2023-03-06T06:53:28.394Z,-5.64
2023-03-06T06:58:35.719Z,-5.34
2023-03-06T07:03:43.338Z,-5.06
2023-03-06T07:08:56.585Z,-4.85
2023-03-06T07:14:03.938Z,-4.63
2023-03-06T07:19:11.436Z,-4.45
2023-03-06T07:24:18.629Z,-4.30
2023-03-06T07:29:25.778Z,-4.12
2023-03-06T07:34:33.035Z,-3.95
2023-03-06T07:39:40.259Z,-3.76
2023-03-06T07:44:47.417Z,-3.50
2023-03-06T07:49:57.278Z,-3.29
2023-03-06T07:55:04.982Z,-3.10
2023-03-06T08:00:17.090Z,-2.98
2023-03-06T08:05:24.477Z,-2.74
2023-03-06T08:10:31.620Z,-2.35
2023-03-06T08:15:38.689Z,-1.77
2023-03-06T08:20:45.837Z,-0.94
2023-03-06T08:26:00.234Z,0.05
2023-03-06T08:31:13.588Z,0.64
2023-03-06T08:36:20.686Z,1.06
2023-03-06T08:41:27.890Z,1.23
2023-03-06T08:46:35.754Z,1.22
2023-03-06T08:51:43.148Z,1.27
2023-03-06T08:56:50.268Z,1.02
2023-03-06T09:01:57.432Z,0.74
2023-03-06T09:07:04.752Z,0.57
2023-03-06T09:12:11.916Z,0.47
2023-03-06T09:17:19.064Z,0.36
2023-03-06T09:22:26.232Z,0.35
2023-03-06T09:27:33.380Z,0.37
2023-03-06T09:32:40.558Z,0.36
2023-03-06T09:37:47.850Z,0.47
2023-03-06T09:42:55.019Z,0.59
2023-03-06T09:48:06.172Z,0.71
2023-03-06T09:53:30.832Z,0.74
2023-03-06T09:58:43.365Z,0.78
2023-03-06T10:03:55.585Z,0.83
2023-03-06T10:09:06.865Z,0.84
2023-03-06T10:14:28.088Z,0.81
2023-03-06T10:19:37.566Z,0.85
2023-03-06T10:24:52.406Z,0.98
2023-03-06T10:30:07.826Z,1.12
2023-03-06T10:35:20.101Z,1.39
2023-03-06T10:40:33.410Z,1.69
2023-03-06T10:45:50.384Z,1.89
2023-03-06T10:51:18.463Z,2.09
2023-03-06T10:56:34.378Z,2.31
2023-03-06T11:01:43.046Z,2.43
2023-03-06T11:07:05.409Z,2.45
2023-03-06T11:12:29.457Z,2.48
2023-03-06T11:17:38.776Z,2.52
2023-03-06T11:22:50.764Z,2.60
2023-03-06T11:28:03.751Z,2.66
2023-03-06T11:33:20.217Z,2.85
2023-03-06T11:38:35.758Z,2.98
2023-03-06T11:43:54.207Z,3.08
2023-03-06T11:49:07.673Z,3.15
2023-03-06T11:54:16.107Z,3.18
2023-03-06T12:00:03.034Z,3.18
2023-03-06T12:05:34.931Z,3.10
2023-03-06T12:10:52.383Z,2.98
2023-03-06T12:16:19.238Z,2.85
2023-03-06T12:21:37.951Z,2.70
2023-03-06T12:27:10.857Z,2.57
2023-03-06T12:32:35.358Z,2.47
2023-03-06T12:37:55.655Z,2.30
2023-03-06T12:43:33.278Z,2.17
2023-03-06T12:48:44.066Z,2.02
2023-03-06T12:53:53.478Z,1.88
2023-03-06T12:59:02.716Z,1.78
2023-03-06T13:04:28.749Z,1.66
2023-03-06T13:09:46.143Z,1.55
2023-03-06T13:15:02.267Z,1.42
2023-03-06T13:20:35.285Z,1.30
2023-03-06T13:25:52.698Z,1.23
2023-03-06T13:31:00.170Z,1.18
2023-03-06T13:36:33.882Z,1.12
2023-03-06T13:41:58.919Z,1.08
2023-03-06T13:47:20.580Z,1.08
2023-03-06T13:52:41.050Z,1.07
2023-03-06T13:58:08.623Z,1.03
2023-03-06T14:03:42.525Z,0.96
2023-03-06T14:08:49.908Z,0.87
2023-03-06T14:13:59.048Z,0.78
2023-03-06T14:19:08.823Z,0.69
2023-03-06T14:24:19.629Z,0.60
2023-03-06T14:29:30.849Z,0.53
2023-03-06T14:34:46.845Z,0.48
2023-03-06T14:39:56.215Z,0.48
2023-03-06T14:45:17.444Z,0.53
2023-03-06T14:50:29.897Z,0.59
2023-03-06T14:55:38.761Z,0.67
2023-03-06T15:00:50.779Z,0.71
2023-03-06T15:05:58.429Z,0.70
2023-03-06T15:11:07.619Z,0.66
2023-03-06T15:16:30.366Z,0.62
2023-03-06T15:21:39.331Z,0.59
2023-03-06T15:26:52.354Z,0.55
2023-03-06T15:32:17.068Z,0.52
2023-03-06T15:37:29.996Z,0.54
2023-03-06T15:42:38.911Z,0.59
2023-03-06T15:47:47.069Z,0.65
2023-03-06T15:52:54.768Z,0.67
2023-03-06T15:58:05.942Z,0.64
2023-03-06T16:03:13.915Z,0.58
2023-03-06T16:08:21.021Z,0.51
2023-03-06T16:13:30.117Z,0.42
2023-03-06T16:18:37.372Z,0.32
2023-03-06T16:23:44.481Z,0.23
2023-03-06T16:28:51.577Z,0.15
2023-03-06T16:33:58.690Z,0.07
2023-03-06T16:39:05.946Z,-0.00
2023-03-06T16:44:13.109Z,-0.03
2023-03-06T16:49:21.441Z,-0.03
2023-03-06T16:54:28.649Z,-0.10
2023-03-06T16:59:36.088Z,-0.24
2023-03-06T17:04:43.496Z,-0.39
2023-03-06T17:09:50.735Z,-0.58
2023-03-06T17:14:58.187Z,-0.77
2023-03-06T17:20:07.719Z,-0.98
2023-03-06T17:25:15.018Z,-1.20
2023-03-06T17:30:22.191Z,-1.44
2023-03-06T17:35:29.483Z,-1.60
2023-03-06T17:40:36.681Z,-1.69
2023-03-06T17:45:43.927Z,-1.71
2023-03-06T17:50:58.123Z,-1.71
2023-03-06T17:56:08.517Z,-1.78
2023-03-06T18:01:18.534Z,-1.85
2023-03-06T18:06:30.223Z,-1.96
2023-03-06T18:11:38.142Z,-2.11
2023-03-06T18:16:43.779Z,-2.26
2023-03-06T18:21:51.087Z,-2.41
2023-03-06T18:26:58.555Z,-2.56
2023-03-06T18:32:09.633Z,-2.71
2023-03-06T18:37:16.910Z,-2.86
2023-03-06T18:42:24.847Z,-2.96
2023-03-06T18:47:32.017Z,-3.02
2023-03-06T18:52:42.602Z,-2.99
2023-03-06T18:57:50.586Z,-2.93
2023-03-06T19:02:57.778Z,-2.95
2023-03-06T19:08:05.014Z,-3.02
2023-03-06T19:13:13.456Z,-3.12
2023-03-06T19:18:21.013Z,-3.22
2023-03-06T19:23:28.246Z,-3.37
2023-03-06T19:28:35.800Z,-3.54
2023-03-06T19:33:43.757Z,-3.68
2023-03-06T19:38:54.229Z,-3.83
2023-03-06T19:44:06.004Z,-3.92
2023-03-06T19:49:18.387Z,-3.92
2023-03-06T19:54:26.107Z,-3.86
2023-03-06T19:59:34.633Z,-3.80
2023-03-06T20:04:42.694Z,-3.79
2023-03-06T20:09:49.235Z,-3.86
2023-03-06T20:14:56.705Z,-3.98
2023-03-06T20:20:04.570Z,-4.11
2023-03-06T20:25:12.331Z,-4.25
2023-03-06T20:30:18.416Z,-4.35
2023-03-06T20:35:25.771Z,-4.45
2023-03-06T20:40:33.392Z,-4.57
2023-03-06T20:45:40.470Z,-4.69
2023-03-06T20:50:48.274Z,-4.79
2023-03-06T20:55:55.395Z,-4.85
2023-03-06T21:01:02.893Z,-4.83
2023-03-06T21:06:10.267Z,-4.73
2023-03-06T21:11:17.975Z,-4.60
2023-03-06T21:16:26.777Z,-4.50
2023-03-06T21:21:36.013Z,-4.46
2023-03-06T21:26:43.216Z,-4.48
2023-03-06T21:31:50.315Z,-4.54
2023-03-06T21:36:57.430Z,-4.65
2023-03-06T21:42:04.592Z,-4.77
2023-03-06T21:47:11.981Z,-4.93
2023-03-06T21:52:19.617Z,-5.10
2023-03-06T21:57:25.580Z,-5.24
2023-03-06T22:02:33.079Z,-5.36
2023-03-06T22:07:41.223Z,-5.45
2023-03-06T22:12:48.650Z,-5.49
2023-03-06T22:17:56.819Z,-5.44
2023-03-06T22:23:04.563Z,-5.33
2023-03-06T22:28:13.324Z,-5.22
2023-03-06T22:33:21.138Z,-5.15
2023-03-06T22:38:28.917Z,-5.24
2023-03-06T22:43:37.684Z,-5.36
2023-03-06T22:48:45.862Z,-5.49
2023-03-06T22:53:53.075Z,-5.61
2023-03-06T22:59:00.809Z,-5.73
2023-03-06T23:04:11.263Z,-5.88
2023-03-06T23:09:21.644Z,-6.05
2023-03-06T23:14:49.848Z,-6.21
2023-03-06T23:20:16.954Z,-6.35
2023-03-06T23:25:43.770Z,-6.47
2023-03-06T23:30:51.191Z,-6.55
2023-03-06T23:36:02.683Z,-6.56
2023-03-06T23:41:12.841Z,-6.51
2023-03-06T23:46:20.335Z,-6.39
2023-03-06T23:51:27.580Z,-6.28
2023-03-06T23:56:34.701Z,-6.21
